Time;durP1;ratioP1;P1;durP2;ratioP2;P2;SDS_P1;SDS_P2;PMS_P1;PMS_P2;Temp;Humidity;BMP_temperature;BMP_pressure;BME280_temperature;BME280_humidity;BME280_pressure;Samples;Min_cycle;Max_cycle;Signal;HPM_P1;HPM_P2
2022/08/05 00:01:25;;;;;;;19.25;14.25;;;23.10;99.90;23.30;99288.00;;;;4988544;28;88976;-60
2022/08/05 00:03:52;;;;;;;23.98;15.02;;;;;23.30;99282.00;;;;4995106;28;88979;-59
2022/08/05 00:06:18;;;;;;;28.05;14.50;;;;;23.30;99281.00;;;;4988247;28;87253;-59
2022/08/05 00:08:45;;;;;;;25.52;15.25;;;22.80;99.90;23.30;99289.00;;;;4989472;28;87153;-61
2022/08/05 00:11:13;;;;;;;24.48;14.63;;;23.30;99.90;23.30;99278.00;;;;4984972;28;88634;-59
2022/08/05 00:13:42;;;;;;;24.83;14.77;;;23.30;99.90;23.30;99287.00;;;;4982553;28;88410;-59
2022/08/05 00:16:12;;;;;;;23.38;15.48;;;23.00;99.90;23.30;99291.00;;;;4988870;28;87072;-60
2022/08/05 00:18:47;;;;;;;22.02;15.60;;;23.00;99.90;23.30;99290.00;;;;4995612;28;86893;-60
2022/08/05 00:21:16;;;;;;;25.90;15.75;;;22.80;99.90;23.40;99288.00;;;;4991347;28;89272;-60
2022/08/05 00:23:45;;;;;;;24.35;15.13;;;23.00;99.90;23.30;99289.00;;;;4990550;28;88341;-60
2022/08/05 00:26:11;;;;;;;20.42;14.80;;;23.10;99.90;23.30;99278.00;;;;4985448;28;86977;-60
2022/08/05 00:28:38;;;;;;;25.30;16.17;;;;;23.30;99289.00;;;;4991427;28;87056;-60
2022/08/05 00:31:06;;;;;;;27.88;18.15;;;22.70;99.90;23.30;99287.00;;;;4989974;28;87696;-60
2022/08/05 00:33:33;;;;;;;24.98;15.52;;;22.80;99.90;23.20;99281.00;;;;4982851;28;88461;-60
2022/08/05 00:36:00;;;;;;;29.85;15.60;;;22.60;99.90;23.10;99287.00;;;;4990411;28;88036;-60
2022/08/05 00:38:27;;;;;;;28.83;15.70;;;22.60;99.90;23.10;99280.00;;;;4986268;28;86965;-60
2022/08/05 00:40:57;;;;;;;28.98;16.02;;;22.70;99.90;23.00;99284.00;;;;4994669;28;91122;-60
2022/08/05 00:43:24;;;;;;;25.40;15.85;;;22.70;99.90;23.00;99275.00;;;;4992048;28;89040;-60
2022/08/05 00:45:50;;;;;;;25.70;17.08;;;22.90;99.90;23.00;99277.00;;;;4999597;28;87060;-60
2022/08/05 00:48:19;;;;;;;27.52;16.13;;;22.60;99.90;22.90;99282.00;;;;4999210;28;86966;-60
2022/08/05 00:50:50;;;;;;;29.27;16.85;;;22.50;99.90;22.80;99280.00;;;;4993396;28;88483;-60
2022/08/05 00:53:20;;;;;;;24.52;15.95;;;22.70;99.90;22.80;99289.00;;;;4992605;28;87277;-60
2022/08/05 00:55:47;;;;;;;33.13;15.98;;;22.40;99.90;22.70;99291.00;;;;4983867;28;87222;-60
2022/08/05 00:58:18;;;;;;;25.48;16.23;;;22.40;99.90;22.70;99289.00;;;;4986414;28;86990;-60
2022/08/05 01:00:46;;;;;;;31.42;16.58;;;22.40;99.90;22.70;99279.00;;;;4983759;28;88554;-60
2022/08/05 01:03:13;;;;;;;29.88;18.48;;;22.30;99.90;22.60;99282.00;;;;4995178;28;88552;-60
2022/08/05 01:05:39;;;;;;;21.73;15.68;;;;;22.60;99283.00;;;;4992045;28;87407;-60
2022/08/05 01:08:06;;;;;;;27.05;16.23;;;22.30;99.90;22.50;99289.00;;;;4986991;28;87119;-60
2022/08/05 01:11:00;;;;;;;28.98;15.90;;;22.10;99.90;22.50;99280.00;;;;4980893;28;87564;-60
2022/08/05 01:14:09;;;;;;;26.30;15.32;;;22.20;99.90;22.40;99274.00;;;;4978034;28;87329;-60
2022/08/05 01:16:56;;;;;;;22.27;16.52;;;22.70;99.90;22.30;99275.00;;;;4996020;28;86972;-60
2022/08/05 01:19:30;;;;;;;27.45;16.58;;;;;22.40;99275.00;;;;4987908;28;86742;-60
2022/08/05 01:22:20;;;;;;;25.27;16.25;;;22.20;99.90;22.40;99278.00;;;;4991135;28;88624;-60
2022/08/05 01:25:00;;;;;;;22.70;15.83;;;22.10;99.90;22.30;99278.00;;;;4996943;28;88323;-60
2022/08/05 01:28:16;;;;;;;24.42;16.20;;;21.90;99.90;22.30;99282.00;;;;4992157;28;88287;-61
2022/08/05 01:30:51;;;;;;;23.92;16.00;;;23.50;99.90;22.30;99281.00;;;;4988992;28;87042;-60
2022/08/05 01:33:24;;;;;;;28.42;16.38;;;22.20;99.90;22.40;99273.00;;;;4990698;28;88057;-60
2022/08/05 01:35:54;;;;;;;21.48;15.98;;;22.10;99.90;22.40;99277.00;;;;4994355;28;87355;-60
2022/08/05 01:38:22;;;;;;;28.48;16.88;;;22.20;99.90;22.40;99287.00;;;;4994165;28;87150;-60
2022/08/05 01:40:49;;;;;;;25.02;17.08;;;21.90;99.90;22.40;99277.00;;;;4996983;28;87193;-60
2022/08/05 01:43:16;;;;;;;26.95;17.25;;;21.80;99.90;22.40;99278.00;;;;4995751;28;86907;-61
2022/08/05 01:45:43;;;;;;;25.90;16.98;;;21.80;99.90;22.50;99282.00;;;;4983685;28;88536;-60
2022/08/05 01:48:10;;;;;;;27.10;16.65;;;22.10;99.90;22.50;99278.00;;;;4987426;28;87032;-60
2022/08/05 01:50:40;;;;;;;24.40;15.35;;;22.10;99.90;22.50;99282.00;;;;4997512;28;87340;-61
2022/08/05 01:53:15;;;;;;;25.52;16.85;;;22.50;99.90;22.50;99273.00;;;;4994863;28;87900;-60
2022/08/05 01:55:44;;;;;;;23.42;17.40;;;22.00;99.90;22.50;99278.00;;;;4985109;28;88207;-60
2022/08/05 01:58:12;;;;;;;20.80;16.63;;;22.10;99.90;22.50;99290.00;;;;4988204;28;86970;-60
2022/08/05 02:00:44;;;;;;;22.85;15.70;;;22.10;99.90;22.50;99280.00;;;;4989612;28;87105;-60
2022/08/05 02:03:36;;;;;;;22.73;16.85;;;22.20;99.90;22.50;99277.00;;;;4985942;28;87715;-59
2022/08/05 02:06:05;;;;;;;26.83;16.70;;;22.10;99.90;22.40;99280.00;;;;4991490;28;87006;-59
2022/08/05 02:08:33;;;;;;;20.67;16.70;;;22.20;99.90;22.40;99279.00;;;;4993554;28;87005;-59
2022/08/05 02:11:09;;;;;;;22.90;16.95;;;22.00;99.90;22.40;99283.00;;;;4997941;28;86319;-60
2022/08/05 02:14:11;;;;;;;22.73;16.55;;;21.80;99.90;22.50;99284.00;;;;4983320;28;89451;-60
2022/08/05 02:16:46;;;;;;;25.02;17.27;;;22.30;99.90;22.50;99284.00;;;;4988142;28;105238;-60
2022/08/05 02:19:36;;;;;;;24.88;17.45;;;22.50;99.90;22.50;99288.00;;;;4977990;28;88253;-60
2022/08/05 02:22:19;;;;;;;24.73;16.88;;;22.10;99.90;22.50;99284.00;;;;4990715;28;87505;-60
2022/08/05 02:25:05;;;;;;;21.85;17.20;;;21.90;99.90;22.50;99289.00;;;;4996632;28;87565;-60
2022/08/05 02:27:36;;;;;;;24.45;16.13;;;22.30;99.90;22.40;99285.00;;;;4991549;28;87466;-60
2022/08/05 02:30:03;;;;;;;;;;;22.10;99.90;22.40;99287.00;;;;4995015;28;87318;-60
2022/08/05 02:32:32;;;;;;;27.30;16.98;;;22.20;99.90;22.40;99299.00;;;;4992537;28;87227;-59
2022/08/05 02:35:09;;;;;;;23.60;16.60;;;21.90;99.90;22.50;99307.00;;;;4985782;28;90881;-60
2022/08/05 02:37:37;;;;;;;20.50;17.05;;;22.40;99.90;22.50;99291.00;;;;4987437;28;88307;-59
2022/08/05 02:40:06;;;;;;;20.67;16.67;;;22.10;99.90;22.40;99307.00;;;;4987046;28;86929;-59
2022/08/05 02:42:34;;;;;;;28.00;18.15;;;22.10;99.90;22.40;99304.00;;;;4986944;28;87102;-59
2022/08/05 02:45:01;;;;;;;27.13;16.63;;;22.10;99.90;22.40;99310.00;;;;4988988;28;89578;-59
2022/08/05 02:47:30;;;;;;;25.00;17.38;;;22.10;99.90;22.40;99300.00;;;;4979915;28;88203;-60
2022/08/05 02:49:58;;;;;;;28.35;16.73;;;22.10;99.90;22.40;99310.00;;;;4994886;28;87597;-59
2022/08/05 02:52:25;;;;;;;24.02;16.88;;;22.00;99.90;22.40;99306.00;;;;4983141;28;86954;-61
2022/08/05 02:54:52;;;;;;;28.20;16.98;;;;;22.50;99313.00;;;;4999415;28;88410;-61
2022/08/05 02:57:20;;;;;;;25.42;17.10;;;22.40;99.90;22.40;99310.00;;;;4980706;28;89599;-60
2022/08/05 02:59:48;;;;;;;22.95;17.67;;;23.60;99.90;22.40;99307.00;;;;4991904;28;87009;-61
2022/08/05 03:02:19;;;;;;;23.02;17.00;;;21.90;99.90;22.50;99317.00;;;;4996670;28;86831;-59
2022/08/05 03:04:47;;;;;;;23.35;16.13;;;22.20;99.90;22.50;99310.00;;;;4997056;28;88649;-60
2022/08/05 03:07:14;;;;;;;20.90;15.65;;;22.00;99.90;22.50;99326.00;;;;4986654;28;87475;-61
2022/08/05 03:09:43;;;;;;;26.00;16.23;;;22.60;99.90;22.60;99319.00;;;;4967349;28;88026;-61
2022/08/05 03:12:09;;;;;;;32.13;18.15;;;;;22.60;99314.00;;;;4989999;28;87109;-61
2022/08/05 03:14:35;;;;;;;25.02;16.45;;;22.30;99.90;22.50;99326.00;;;;4993908;28;87969;-61
2022/08/05 03:17:02;;;;;;;27.67;17.98;;;22.10;99.90;22.50;99331.00;;;;4985308;28;89367;-60
2022/08/05 03:19:28;;;;;;;26.27;17.13;;;22.20;99.90;22.50;99325.00;;;;4986304;28;87153;-61
2022/08/05 03:21:54;;;;;;;28.42;17.70;;;22.10;99.90;22.50;99328.00;;;;4982125;28;86999;-60
2022/08/05 03:24:22;;;;;;;25.83;16.08;;;22.20;99.90;22.50;99325.00;;;;4985589;28;87456;-59
2022/08/05 03:26:48;;;;;;;24.13;16.73;;;;;22.50;99330.00;;;;4987509;28;87143;-58
2022/08/05 03:29:15;;;;;;;24.85;15.80;;;;;22.50;99326.00;;;;4988553;28;86955;-58
2022/08/05 03:31:41;;;;;;;24.30;16.15;;;21.90;99.90;22.50;99334.00;;;;4990429;28;87349;-60
2022/08/05 03:34:08;;;;;;;20.63;15.52;;;22.20;99.90;22.60;99332.00;;;;4992445;28;88518;-59
2022/08/05 03:36:34;;;;;;;23.58;16.67;;;22.20;99.90;22.60;99332.00;;;;4983397;28;89396;-60
2022/08/05 03:39:06;;;;;;;21.27;16.10;;;22.20;99.90;22.60;99331.00;;;;4993537;28;87037;-60
2022/08/05 03:41:33;;;;;;;26.50;16.85;;;22.00;99.90;22.60;99334.00;;;;4998262;28;86991;-59
2022/08/05 03:44:00;;;;;;;23.40;16.10;;;;;22.60;99337.00;;;;4989491;28;88741;-60
2022/08/05 03:46:26;;;;;;;25.00;16.05;;;;;22.70;99344.00;;;;4979603;28;87919;-60
2022/08/05 03:48:53;;;;;;;30.10;17.92;;;;;22.70;99340.00;;;;4998397;28;86984;-60
2022/08/05 03:51:33;;;;;;;27.25;16.83;;;22.20;99.90;22.70;99345.00;;;;4988048;28;86623;-59
2022/08/05 03:54:07;;;;;;;26.80;16.63;;;22.30;99.90;22.70;99347.00;;;;4981690;28;88193;-60
2022/08/05 03:56:44;;;;;;;21.73;16.23;;;22.60;99.90;22.70;99349.00;;;;4974016;28;89588;-59
2022/08/05 03:59:25;;;;;;;24.65;15.55;;;22.40;99.90;22.80;99355.00;;;;4993762;28;88338;-59
2022/08/05 04:01:52;;;;;;;24.77;15.27;;;;;22.80;99362.00;;;;4991329;28;87077;-59
2022/08/05 04:04:20;;;;;;;22.48;14.43;;;22.40;99.90;22.90;99356.00;;;;4969044;28;89113;-60
2022/08/05 04:06:47;;;;;;;19.38;14.48;;;22.60;99.90;22.90;99357.00;;;;4991372;28;87861;-59
2022/08/05 04:09:15;;;;;;;19.60;15.05;;;22.40;99.90;23.00;99366.00;;;;4993167;28;87473;-59
2022/08/05 04:11:41;;;;;;;21.90;14.23;;;22.50;99.90;23.00;99356.00;;;;4983846;28;87081;-59
2022/08/05 04:14:08;;;;;;;19.02;13.55;;;22.60;99.90;23.00;99355.00;;;;4985970;28;87870;-59
2022/08/05 04:16:34;;;;;;;23.33;13.73;;;;;23.10;99359.00;;;;4993436;28;89011;-59
2022/08/05 04:19:02;;;;;;;21.95;14.88;;;22.60;99.90;23.10;99365.00;;;;4992309;28;87049;-60
2022/08/05 04:21:28;;;;;;;21.40;14.82;;;22.90;99.90;23.20;99369.00;;;;4984604;28;86946;-60
2022/08/05 04:23:57;;;;;;;26.02;14.07;;;22.80;99.90;23.20;99367.00;;;;4964785;28;88566;-61
2022/08/05 04:26:24;;;;;;;20.83;14.80;;;22.70;99.90;23.20;99373.00;;;;4976406;28;89369;-60
2022/08/05 04:28:50;;;;;;;23.95;14.60;;;;;23.30;99368.00;;;;4989193;28;87007;-60
2022/08/05 04:31:17;;;;;;;21.73;14.32;;;;;23.30;99371.00;;;;4992152;28;86962;-60
2022/08/05 04:33:43;;;;;;;23.10;15.02;;;;;23.40;99369.00;;;;4992430;28;87337;-60
2022/08/05 04:36:10;;;;;;;20.27;13.48;;;22.90;99.90;23.40;99363.00;;;;4987841;28;88444;-59
2022/08/05 04:38:36;;;;;;;21.08;13.55;;;;;23.50;99370.00;;;;4991803;28;86941;-59
2022/08/05 04:41:03;;;;;;;24.42;13.23;;;;;23.60;99377.00;;;;4995134;28;86823;-60
2022/08/05 04:43:29;;;;;;;26.23;14.10;;;23.10;99.90;23.60;99368.00;;;;4990137;28;87617;-60
2022/08/05 04:45:55;;;;;;;28.48;14.77;;;;;23.80;99374.00;;;;4999344;28;87373;-60
2022/08/05 04:48:22;;;;;;;18.42;14.18;;;;;23.90;99368.00;;;;4998453;28;88885;-60
2022/08/05 04:50:49;;;;;;;20.80;13.00;;;23.50;99.90;24.10;99362.00;;;;4990127;28;86994;-60
2022/08/05 04:53:17;;;;;;;20.90;12.68;;;23.70;99.90;24.20;99371.00;;;;4993306;28;88621;-60
2022/08/05 04:55:44;;;;;;;20.77;13.70;;;23.80;99.90;24.30;99369.00;;;;4990946;28;88083;-60
2022/08/05 04:58:17;;;;;;;25.70;14.85;;;23.80;99.90;24.30;99368.00;;;;4997449;28;87002;-60
2022/08/05 05:00:43;;;;;;;19.33;14.07;;;24.20;99.90;24.40;99370.00;;;;4988487;28;87026;-60
2022/08/05 05:03:12;;;;;;;24.38;14.70;;;;;24.40;99371.00;;;;4996743;28;87482;-60
2022/08/05 05:05:38;;;;;;;19.83;12.95;;;;;24.50;99364.00;;;;4995839;28;87452;-60
2022/08/05 05:08:09;;;;;;;23.48;13.93;;;24.30;99.90;24.70;99366.00;;;;4987922;28;87306;-60
2022/08/05 05:10:45;;;;;;;17.67;12.63;;;24.30;99.90;24.90;99370.00;;;;4991664;28;87128;-60
2022/08/05 05:13:17;;;;;;;18.30;13.68;;;24.50;99.90;25.00;99376.00;;;;4994617;28;88477;-60
2022/08/05 05:15:44;;;;;;;;;;;24.40;99.90;25.10;99377.00;;;;4991235;28;88161;-60
2022/08/05 05:18:17;;;;;;;17.35;13.23;;;24.60;99.90;25.20;99367.00;;;;4984714;28;86968;-60
2022/08/05 05:20:45;;;;;;;22.45;12.93;;;24.80;99.90;25.30;99371.00;;;;4998812;28;86951;-60
2022/08/05 05:23:12;;;;;;;20.88;12.38;;;;;25.40;99361.00;;;;5002640;28;88582;-60
2022/08/05 05:25:41;;;;;;;17.10;13.07;;;24.90;99.90;25.40;99367.00;;;;4992219;28;87308;-60
2022/08/05 05:28:08;;;;;;;24.20;12.52;;;24.50;99.90;25.50;99371.00;;;;4989111;28;87344;-61
2022/08/05 05:30:35;;;;;;;18.00;11.10;;;25.20;99.90;25.50;99370.00;;;;4988819;28;87461;-61
2022/08/05 05:33:03;;;;;;;23.88;12.73;;;25.20;99.90;25.80;99358.00;;;;4990089;28;88325;-61
2022/08/05 05:35:31;;;;;;;16.23;12.25;;;25.50;99.90;26.10;99363.00;;;;4987342;28;88867;-60
2022/08/05 05:38:01;;;;;;;19.02;11.23;;;26.00;99.90;26.30;99366.00;;;;4993462;28;88156;-60
2022/08/05 05:40:30;;;;;;;22.13;12.63;;;26.00;99.90;26.60;99366.00;;;;4994635;28;87009;-60
2022/08/05 05:42:57;;;;;;;20.80;11.25;;;;;26.90;99366.00;;;;4997868;28;88661;-60
2022/08/05 05:45:24;;;;;;;20.73;11.15;;;;;27.20;99373.00;;;;4995659;28;88374;-60
2022/08/05 05:47:50;;;;;;;18.88;11.70;;;;;27.40;99372.00;;;;5002000;28;87331;-60
2022/08/05 05:50:18;;;;;;;22.60;11.10;;;26.70;99.90;27.30;99376.00;;;;4995552;28;86976;-60
2022/08/05 05:52:46;;;;;;;20.00;10.18;;;26.70;99.90;27.40;99373.00;;;;4983866;28;87896;-60
2022/08/05 05:55:14;;;;;;;16.45;9.93;;;26.60;99.90;27.50;99381.00;;;;4999526;28;88756;-60
2022/08/05 05:57:43;;;;;;;17.63;9.13;;;26.90;99.90;27.50;99378.00;;;;4985519;28;87959;-60
2022/08/05 06:00:14;;;;;;;17.40;8.88;;;27.00;99.90;27.60;99380.00;;;;4990930;28;87200;-60
2022/08/05 06:02:42;;;;;;;15.90;9.10;;;;;27.60;99383.00;;;;4993962;28;88495;-60
2022/08/05 06:05:09;;;;;;;16.80;8.85;;;27.10;99.90;27.70;99385.00;;;;4997474;28;87193;-60
2022/08/05 06:07:37;;;;;;;14.55;8.40;;;;;27.80;99380.00;;;;4997068;28;86879;-60
2022/08/05 06:10:05;;;;;;;15.70;9.30;;;27.60;99.90;28.20;99380.00;;;;5000636;28;87345;-60
2022/08/05 06:12:35;;;;;;;16.02;8.82;;;;;28.40;99384.00;;;;4991950;28;87556;-60
2022/08/05 06:15:02;;;;;;;12.07;8.30;;;;;28.50;99374.00;;;;4989568;28;88390;-60
2022/08/05 06:17:30;;;;;;;14.80;8.98;;;;;28.60;99379.00;;;;4985588;28;87129;-60
2022/08/05 06:19:57;;;;;;;11.10;8.32;;;;;28.40;99380.00;;;;4988673;28;86407;-60
2022/08/05 06:22:29;;;;;;;16.38;9.10;;;27.50;99.90;28.00;99380.00;;;;4981543;28;88767;-60
2022/08/05 06:24:57;;;;;;;11.90;8.27;;;26.70;99.90;27.70;99383.00;;;;4986376;28;88786;-60
2022/08/05 06:27:24;;;;;;;16.67;8.40;;;;;27.50;99381.00;;;;4995603;28;88866;-60
2022/08/05 06:29:51;;;;;;;15.18;8.13;;;;;27.30;99392.00;;;;4993730;28;87706;-60
2022/08/05 06:32:18;;;;;;;13.07;8.40;;;27.00;99.90;27.20;99388.00;;;;4991487;28;87810;-60
2022/08/05 06:34:44;;;;;;;23.50;8.38;;;26.90;99.90;27.10;99392.00;;;;4981028;28;87356;-60
2022/08/05 06:37:10;;;;;;;16.35;8.88;;;27.20;99.90;27.10;99393.00;;;;4997599;28;86874;-60
2022/08/05 06:39:38;;;;;;;14.63;7.90;;;27.30;99.90;27.20;99391.00;;;;4988717;28;87071;-60
2022/08/05 06:42:05;;;;;;;12.32;7.60;;;;;27.30;99394.00;;;;5000705;28;88035;-60
2022/08/05 06:44:31;;;;;;;16.15;7.78;;;;;27.40;99391.00;;;;4991269;28;88483;-60
2022/08/05 06:46:58;;;;;;;11.35;6.32;;;;;27.50;99391.00;;;;5002354;28;87570;-60
2022/08/05 06:49:25;;;;;;;17.02;6.97;;;27.20;99.90;27.50;99394.00;;;;4992276;28;86974;-60
2022/08/05 06:51:51;;;;;;;27.08;8.73;;;27.30;99.90;27.50;99394.00;;;;4994356;28;88167;-60
2022/08/05 06:54:18;;;;;;;11.23;6.07;;;;;27.50;99395.00;;;;5000224;28;87763;-61
2022/08/05 06:56:44;;;;;;;15.73;6.78;;;;;27.60;99401.00;;;;4994613;28;86863;-60
2022/08/05 06:59:13;;;;;;;10.38;7.00;;;;;27.60;99396.00;;;;4987897;28;87069;-60
2022/08/05 07:01:41;;;;;;;14.90;7.50;;;;;27.60;99405.00;;;;4989770;28;90666;-61
2022/08/05 07:04:07;;;;;;;21.23;7.53;;;;;27.70;99399.00;;;;4986860;28;88715;-60
2022/08/05 07:06:34;;;;;;;14.32;6.13;;;;;27.80;99402.00;;;;4975607;28;86882;-61
2022/08/05 07:09:00;;;;;;;11.98;6.07;;;;;27.80;99409.00;;;;4960099;28;86277;-60
2022/08/05 07:11:27;;;;;;;11.57;5.57;;;;;28.00;99403.00;;;;4997194;28;87980;-60
2022/08/05 07:16:48;;;;;;;7.93;5.50;;;;;28.00;99402.00;;;;4994745;28;87908;-60
2022/08/05 07:19:19;;;;;;;8.63;5.35;;;27.80;98.70;28.00;99408.00;;;;4994956;28;87719;-60
2022/08/05 07:21:46;;;;;;;;;;;27.80;99.10;28.00;99394.00;;;;5002638;28;87220;-60
2022/08/05 07:24:13;;;;;;;8.10;4.85;;;27.80;99.90;28.00;99402.00;;;;4998993;28;86973;-60
2022/08/05 07:26:40;;;;;;;7.80;4.82;;;27.80;98.30;28.10;99401.00;;;;4991617;28;87086;-60
2022/08/05 07:29:07;;;;;;;10.75;5.88;;;;;28.00;99405.00;;;;4991623;28;87032;-60
2022/08/05 07:31:33;;;;;;;7.07;4.70;;;27.80;99.90;28.00;99402.00;;;;4992982;28;87599;-60
2022/08/05 07:34:01;;;;;;;7.32;4.97;;;;;28.00;99394.00;;;;4994691;28;87382;-60
2022/08/05 07:36:29;;;;;;;10.90;5.57;;;;;28.00;99389.00;;;;4989187;28;86965;-60
2022/08/05 07:38:57;;;;;;;10.10;4.82;;;;;28.00;99395.00;;;;4995588;28;87002;-60
2022/08/05 07:41:24;;;;;;;8.13;4.75;;;;;28.00;99398.00;;;;4996712;28;88581;-59
2022/08/05 07:43:51;;;;;;;10.68;5.07;;;;;28.00;99383.00;;;;4992725;28;88146;-59
2022/08/05 07:46:18;;;;;;;7.03;4.80;;;;;28.00;99394.00;;;;5001193;28;86954;-58
2022/08/05 07:48:44;;;;;;;6.00;4.53;;;;;28.10;99388.00;;;;4995761;28;87018;-59
2022/08/05 07:51:14;;;;;;;6.65;4.80;;;;;28.20;99388.00;;;;4988244;28;87515;-59
2022/08/05 07:53:42;;;;;;;9.50;5.53;;;27.90;96.90;28.20;99387.00;;;;4987434;28;88741;-59
2022/08/05 07:56:08;;;;;;;8.07;5.20;;;;;28.20;99382.00;;;;4996761;28;86940;-59
2022/08/05 07:58:35;;;;;;;9.85;5.32;;;;;28.20;99380.00;;;;4995428;28;86395;-60
2022/08/05 08:01:01;;;;;;;9.55;5.10;;;;;28.30;99383.00;;;;4991782;28;87690;-60
2022/08/05 08:03:28;;;;;;;9.45;4.85;;;;;28.40;99381.00;;;;4995894;28;87217;-59
2022/08/05 08:05:55;;;;;;;9.02;5.93;;;;;28.40;99375.00;;;;4995864;28;88151;-59
2022/08/05 08:08:21;;;;;;;8.05;5.32;;;;;28.40;99389.00;;;;4989865;28;86975;-59
2022/08/05 08:10:49;;;;;;;9.70;5.45;;;;;28.50;99385.00;;;;4980775;28;87637;-60
2022/08/05 08:13:15;;;;;;;8.13;5.93;;;27.80;99.90;28.50;99385.00;;;;4988263;28;88132;-60
2022/08/05 08:15:42;;;;;;;12.05;5.45;;;;;28.60;99379.00;;;;4992510;28;87235;-59
2022/08/05 08:18:09;;;;;;;12.55;5.18;;;;;28.60;99377.00;;;;5000150;28;87657;-60
2022/08/05 08:20:35;;;;;;;10.23;4.63;;;28.10;99.90;28.60;99382.00;;;;4996403;28;87423;-60
2022/08/05 08:23:02;;;;;;;20.08;5.93;;;;;28.60;99377.00;;;;5005299;28;87356;-60
2022/08/05 08:25:28;;;;;;;9.55;5.72;;;;;28.60;99380.00;;;;4997648;28;87088;-60
2022/08/05 08:27:58;;;;;;;10.32;5.20;;;;;28.60;99396.00;;;;4992454;28;87649;-60
2022/08/05 08:30:24;;;;;;;8.93;4.90;;;;;28.60;99386.00;;;;4994814;28;88446;-60
2022/08/05 08:32:51;;;;;;;9.90;5.10;;;;;28.60;99400.00;;;;4994430;28;88192;-59
2022/08/05 08:35:18;;;;;;;9.05;5.15;;;;;28.60;99393.00;;;;4994127;28;87671;-59
2022/08/05 08:37:44;;;;;;;10.18;4.80;;;;;28.60;99384.00;;;;4993211;28;87035;-59
2022/08/05 08:40:11;;;;;;;12.02;4.53;;;27.80;99.90;28.50;99391.00;;;;4996717;28;88408;-59
2022/08/05 08:42:40;;;;;;;12.75;5.40;;;28.70;99.90;28.60;99377.00;;;;5002468;28;87883;-60
2022/08/05 08:45:08;;;;;;;13.05;5.45;;;28.30;94.00;28.60;99377.00;;;;4997088;28;87027;-60
2022/08/05 08:47:37;;;;;;;5.80;4.20;;;;;28.60;99379.00;;;;5004894;28;86262;-60
2022/08/05 08:50:04;;;;;;;11.98;4.72;;;28.20;99.90;28.50;99376.00;;;;4991589;28;88755;-60
2022/08/05 08:52:34;;;;;;;7.88;4.63;;;28.20;95.00;28.50;99382.00;;;;4987426;28;87354;-60
2022/08/05 08:55:02;;;;;;;12.27;4.60;;;;;28.50;99383.00;;;;4998207;28;88162;-60
2022/08/05 08:57:30;;;;;;;7.60;4.95;;;;;28.60;99391.00;;;;5000912;28;87010;-60
2022/08/05 08:59:58;;;;;;;8.20;5.63;;;28.30;93.70;28.60;99388.00;;;;4997577;28;87595;-60
2022/08/05 09:02:25;;;;;;;11.73;5.13;;;;;28.60;99394.00;;;;4995763;28;87853;-60
2022/08/05 09:04:56;;;;;;;9.75;5.40;;;;;28.60;99375.00;;;;4999209;28;87064;-59
2022/08/05 09:07:22;;;;;;;9.70;5.53;;;;;28.70;99382.00;;;;4989788;28;87221;-59
2022/08/05 09:09:49;;;;;;;12.00;6.22;;;;;28.80;99381.00;;;;4990619;28;89152;-59
2022/08/05 09:12:16;;;;;;;10.15;6.55;;;;;28.90;99369.00;;;;4991395;28;87761;-61
2022/08/05 09:14:42;;;;;;;17.52;6.85;;;28.20;99.90;28.90;99365.00;;;;4998232;28;87064;-59
2022/08/05 09:17:11;;;;;;;15.95;5.82;;;29.10;99.90;28.90;99376.00;;;;4990782;28;88262;-60
2022/08/05 09:19:38;;;;;;;8.13;4.88;;;28.60;93.80;28.90;99361.00;;;;4986920;28;89933;-60
2022/08/05 09:22:07;;;;;;;8.63;5.45;;;;;28.90;99367.00;;;;4983105;28;88390;-60
2022/08/05 09:24:36;;;;;;;7.20;5.22;;;28.60;93.80;29.00;99365.00;;;;4986442;28;87240;-60
2022/08/05 09:27:09;;;;;;;9.47;5.47;;;28.20;93.30;29.00;99369.00;;;;4996328;28;87221;-59
2022/08/05 09:29:45;;;;;;;8.45;5.32;;;28.70;93.40;29.10;99360.00;;;;4993042;28;87604;-60
2022/08/05 09:32:12;;;;;;;13.25;5.82;;;;;29.10;99366.00;;;;4981349;28;88814;-60
2022/08/05 09:34:57;;;;;;;9.00;5.72;;;28.80;93.80;29.20;99358.00;;;;4991374;28;87045;-60
2022/08/05 09:37:26;;;;;;;7.55;5.35;;;28.90;93.40;29.30;99353.00;;;;4989107;28;86312;-60
2022/08/05 09:39:54;;;;;;;10.02;5.07;;;;;29.40;99350.00;;;;4997254;28;87613;-60
2022/08/05 09:42:22;;;;;;;10.13;5.63;;;29.20;93.00;29.60;99348.00;;;;4990767;28;87706;-60
2022/08/05 09:44:53;;;;;;;8.52;5.65;;;29.30;93.30;29.70;99349.00;;;;4991432;28;88275;-60
2022/08/05 09:47:26;;;;;;;9.90;5.95;;;29.20;93.20;29.70;99353.00;;;;5002835;28;86943;-60
2022/08/05 09:49:54;;;;;;;9.45;5.60;;;;;29.80;99357.00;;;;4990878;28;87300;-60
2022/08/05 09:52:32;;;;;;;9.57;5.78;;;29.40;99.90;30.00;99354.00;;;;4995649;28;87755;-60
2022/08/05 09:55:05;;;;;;;11.25;5.47;;;29.20;99.90;30.00;99351.00;;;;4992078;28;86988;-60
2022/08/05 09:57:49;;;;;;;8.27;5.63;;;29.50;92.80;29.90;99360.00;;;;4997966;28;87270;-60
2022/08/05 10:00:23;;;;;;;9.85;6.25;;;29.50;92.60;30.00;99353.00;;;;4995836;28;87680;-60
2022/08/05 10:02:54;;;;;;;11.93;5.97;;;29.60;92.80;30.00;99357.00;;;;4989510;28;87826;-60
2022/08/05 10:05:24;;;;;;;6.30;5.43;;;29.60;92.40;30.00;99349.00;;;;4995612;28;87009;-61
2022/08/05 10:08:05;;;;;;;10.18;5.68;;;29.50;92.10;30.00;99346.00;;;;4988995;28;87374;-61
2022/08/05 10:10:47;;;;;;;10.18;5.70;;;29.50;92.20;29.90;99352.00;;;;4992800;28;88330;-61
2022/08/05 10:13:37;;;;;;;12.70;6.10;;;29.40;92.10;29.80;99359.00;;;;4991947;28;89478;-61
2022/08/05 10:16:27;;;;;;;8.77;6.15;;;29.60;99.90;29.80;99362.00;;;;4993869;28;87029;-59
2022/08/05 10:18:54;;;;;;;9.35;5.80;;;29.50;91.70;29.90;99369.00;;;;4985791;28;87513;-60
2022/08/05 10:21:21;;;;;;;10.25;5.93;;;;;30.00;99359.00;;;;4985515;28;87788;-60
2022/08/05 10:23:47;;;;;;;12.43;6.90;;;;;30.10;99353.00;;;;4991475;28;87397;-59
2022/08/05 10:26:14;;;;;;;9.00;5.85;;;;;30.30;99350.00;;;;4990032;28;87907;-60
2022/08/05 10:28:42;;;;;;;8.18;6.07;;;30.00;92.30;30.50;99363.00;;;;4990964;28;86277;-59
2022/08/05 10:31:15;;;;;;;11.02;5.55;;;30.10;90.80;30.60;99355.00;;;;4992638;28;88598;-60
2022/08/05 10:33:42;;;;;;;9.07;6.28;;;;;30.40;99354.00;;;;4989759;28;87185;-60
2022/08/05 10:36:08;;;;;;;9.40;5.95;;;;;30.40;99352.00;;;;4992964;28;87983;-60
2022/08/05 10:38:36;;;;;;;9.93;5.72;;;29.90;91.20;30.40;99354.00;;;;4995830;28;87324;-60
2022/08/05 10:41:28;;;;;;;9.40;5.63;;;29.90;90.70;30.30;99356.00;;;;4995531;28;88627;-60
2022/08/05 10:44:01;;;;;;;9.68;5.85;;;29.80;91.20;30.20;99354.00;;;;4995941;28;88396;-60
2022/08/05 10:46:50;;;;;;;9.93;5.90;;;29.20;99.90;30.10;99347.00;;;;5001032;28;87338;-60
2022/08/05 10:49:16;;;;;;;11.45;7.53;;;;;30.10;99348.00;;;;4993039;28;87067;-60
2022/08/05 10:51:47;;;;;;;14.63;9.15;;;;;30.20;99356.00;;;;4987306;28;88768;-60
2022/08/05 10:54:15;;;;;;;11.27;6.15;;;30.30;91.70;30.30;99344.00;;;;4994501;28;86256;-60
2022/08/05 10:56:55;;;;;;;10.77;6.03;;;30.00;90.60;30.50;99352.00;;;;4969045;28;87153;-60
2022/08/05 10:59:27;;;;;;;7.93;5.95;;;29.70;99.90;30.60;99336.00;;;;4987513;28;86984;-60
2022/08/05 11:02:26;;;;;;;10.50;6.55;;;29.60;99.90;30.50;99344.00;;;;4994892;28;89975;-60
2022/08/05 11:04:54;;;;;;;10.07;6.40;;;29.80;98.40;30.50;99350.00;;;;4968901;28;89522;-60
2022/08/05 11:07:21;;;;;;;11.27;6.15;;;;;30.60;99350.00;;;;4996040;28;87108;-60
2022/08/05 11:09:52;;;;;;;9.63;6.10;;;30.00;90.70;30.50;99335.00;;;;4994591;28;86940;-60
2022/08/05 11:12:40;;;;;;;9.93;6.10;;;30.10;99.90;30.50;99349.00;;;;4980871;28;89168;-60
2022/08/05 11:15:21;;;;;;;10.45;6.10;;;29.60;99.90;30.40;99342.00;;;;4987671;28;87113;-60
2022/08/05 11:17:51;;;;;;;8.68;5.82;;;;;30.50;99330.00;;;;4989634;28;86871;-60
2022/08/05 11:20:37;;;;;;;10.30;6.03;;;30.20;99.90;30.60;99330.00;;;;4986883;28;86394;-60
2022/08/05 11:23:28;;;;;;;10.98;6.05;;;30.40;91.20;30.80;99331.00;;;;4982505;28;87661;-60
2022/08/05 11:26:02;;;;;;;;;;;30.30;90.20;31.00;99328.00;;;;4990133;28;88772;-60
2022/08/05 11:28:31;;;;;;;11.48;6.40;;;30.30;99.90;31.00;99320.00;;;;4991718;28;88010;-60